Time;durP1;ratioP1;P1;durP2;ratioP2;P2;SDS_P1;SDS_P2;PMS_P1;PMS_P2;Temp;Humidity;BMP_temperature;BMP_pressure;BME280_temperature;BME280_humidity;BME280_pressure;Samples;Min_cycle;Max_cycle;Signal;HPM_P1;HPM_P2
2022/08/15 00:00:59;;;;;;;9.63;7.75;;;;;;;25.88;51.15;100417.22;5178717;28;20717;-49
2022/08/15 00:03:35;;;;;;;11.43;8.13;;;;;;;25.88;51.08;100411.00;5173895;28;20844;-52
2022/08/15 00:06:12;;;;;;;9.65;8.20;;;;;;;25.86;51.10;100413.16;5188686;28;20748;-51
2022/08/15 00:08:52;;;;;;;9.18;8.20;;;;;;;25.81;51.39;100410.41;5187388;28;20857;-52
2022/08/15 00:11:32;;;;;;;11.25;8.68;;;;;;;25.76;51.56;100403.88;5184092;28;20488;-49
2022/08/15 00:14:09;;;;;;;8.60;7.70;;;;;;;25.75;51.73;100401.44;5186618;28;20893;-48
2022/08/15 00:16:44;;;;;;;9.93;7.93;;;;;;;25.74;51.81;100408.75;5185385;28;20471;-52
2022/08/15 00:19:21;;;;;;;8.80;7.90;;;;;;;25.75;51.84;100401.44;5187270;28;20481;-50
2022/08/15 00:21:58;;;;;;;9.30;8.05;;;;;;;25.72;52.04;100408.19;5186853;28;20693;-45
2022/08/15 00:24:35;;;;;;;11.75;8.45;;;;;;;25.71;51.99;100403.84;5185566;28;20904;-47
2022/08/15 00:27:09;;;;;;;9.93;8.10;;;;;;;25.69;52.14;100397.88;5186400;28;20427;-49
2022/08/15 00:29:42;;;;;;;10.05;8.45;;;;;;;25.67;52.30;100397.31;5189096;28;20734;-51
2022/08/15 00:32:22;;;;;;;13.98;8.93;;;;;;;25.55;52.33;100375.09;5187032;28;20448;-49
2022/08/15 00:34:54;;;;;;;10.45;8.63;;;;;;;25.65;52.56;100388.66;5181165;28;20443;-51
2022/08/15 00:38:00;;;;;;;10.52;8.30;;;;;;;25.64;52.62;100386.22;5183756;28;20432;-44
2022/08/15 00:41:39;;;;;;;10.18;8.27;;;;;;;25.59;52.71;100387.00;5185487;28;20416;-50
2022/08/15 00:43:52;;;;;;;10.53;8.10;;;;;;;25.59;52.80;100387.00;5185262;28;20409;-50
2022/08/15 00:46:27;;;;;;;10.68;8.73;;;;;;;25.54;52.92;100378.84;5183048;28;20897;-51
2022/08/15 00:48:59;;;;;;;13.32;8.52;;;;;;;25.52;53.02;100387.25;5185218;28;20789;-49
2022/08/15 00:51:38;;;;;;;9.13;8.23;;;;;;;25.51;53.09;100373.97;5186330;28;20428;-53
2022/08/15 00:54:15;;;;;;;10.38;8.18;;;;;;;25.35;53.13;100356.03;5184478;28;20882;-48
2022/08/15 00:56:50;;;;;;;10.07;8.80;;;;;;;25.48;53.11;100379.91;5183971;28;21405;-52
2022/08/15 00:59:30;;;;;;;11.02;8.45;;;;;;;25.45;53.30;100377.72;5186682;28;20418;-51
2022/08/15 01:02:08;;;;;;;12.10;8.73;;;;;;;25.19;53.32;100328.88;5184826;28;20734;-53
2022/08/15 01:04:41;;;;;;;10.18;8.60;;;;;;;25.40;53.51;100370.41;5187971;28;20439;-51
2022/08/15 01:07:14;;;;;;;10.70;8.35;;;;;;;25.38;53.55;100360.91;5187029;28;20436;-51
2022/08/15 01:09:47;;;;;;;9.77;8.45;;;;;;;25.34;53.54;100365.22;5180586;28;20436;-52
2022/08/15 01:12:22;;;;;;;12.00;9.02;;;;;;;25.29;53.75;100360.56;5184904;28;20971;-51
2022/08/15 01:15:01;;;;;;;13.88;9.32;;;;;;;25.27;53.79;100351.91;5188259;28;20427;-51
2022/08/15 01:17:34;;;;;;;12.52;9.20;;;;;;;25.24;53.81;100345.16;5188059;28;20423;-52
2022/08/15 01:20:11;;;;;;;10.20;8.87;;;;;;;25.20;54.06;100352.13;5190012;28;20808;-55
2022/08/15 01:23:01;;;;;;;10.87;9.77;;;;;;;25.16;54.11;100350.22;5188513;28;20425;-53
2022/08/15 01:25:39;;;;;;;13.27;9.70;;;;;;;25.16;54.13;100344.81;5184612;28;20581;-53
2022/08/15 01:28:18;;;;;;;10.73;9.45;;;;;;;25.09;54.39;100345.00;5188513;28;20763;-50
2022/08/15 01:30:53;;;;;;;11.77;10.00;;;;;;;25.07;54.39;100342.53;5189340;28;20418;-53
2022/08/15 01:33:28;;;;;;;11.23;10.05;;;;;;;25.04;54.49;100343.03;5185160;28;20998;-48
2022/08/15 01:36:01;;;;;;;12.63;10.15;;;;;;;25.01;54.37;100346.25;5187505;28;20415;-48
2022/08/15 01:38:36;;;;;;;12.63;11.13;;;;;;;24.98;54.64;100341.38;5199754;28;20749;-51
2022/08/15 01:41:20;;;;;;;14.40;11.18;;;;;;;24.98;54.67;100344.06;5193113;28;20932;-49
2022/08/15 01:43:59;;;;;;;15.13;11.68;;;;;;;24.97;54.86;100341.66;5179195;28;20797;-52
2022/08/15 01:46:38;;;;;;;14.95;11.13;;;;;;;24.94;54.92;100339.47;5186717;28;20835;-51
2022/08/15 01:49:15;;;;;;;11.73;10.40;;;;;;;24.93;54.85;100337.81;5187891;28;20524;-50
2022/08/15 01:51:49;;;;;;;12.40;10.30;;;;;;;24.91;55.03;100338.09;5187834;28;20857;-52
2022/08/15 01:54:24;;;;;;;12.98;10.57;;;;;;;24.91;55.14;100339.97;5188356;28;20901;-52
2022/08/15 01:56:58;;;;;;;11.13;9.98;;;;;;;24.90;55.29;100325.66;5185738;28;20420;-41
2022/08/15 01:59:31;;;;;;;11.23;9.88;;;;;;;24.90;55.36;100324.81;5185703;28;20815;-52
2022/08/15 02:02:07;;;;;;;11.70;9.48;;;;;;;24.90;55.33;100330.22;5188151;28;20813;-46
2022/08/15 02:04:42;;;;;;;12.95;10.07;;;;;;;24.66;55.42;100292.75;5189790;28;20731;-50
2022/08/15 02:07:19;;;;;;;11.60;10.40;;;;;;;24.90;55.53;100324.81;5174105;28;20846;-52
2022/08/15 02:09:52;;;;;;;13.52;9.57;;;;;;;24.78;55.40;100306.91;5186457;28;20970;-51
2022/08/15 02:12:30;;;;;;;12.50;10.35;;;;;;;24.92;55.54;100315.38;5188848;28;20432;-50
2022/08/15 02:15:07;;;;;;;10.93;9.37;;;;;;;24.74;55.63;100288.75;5186543;28;20496;-50
2022/08/15 02:17:41;;;;;;;12.02;9.43;;;;;;;24.95;55.52;100312.19;5199291;28;20866;-50
2022/08/15 02:20:16;;;;;;;9.85;8.85;;;;;;;24.97;55.72;100309.22;5201660;28;20867;-51
2022/08/15 02:22:48;;;;;;;10.50;9.40;;;;;;;24.99;55.75;100307.06;5183087;28;20873;-48
2022/08/15 02:26:17;;;;;;;12.95;9.68;;;;;;;24.99;55.77;100301.66;5210466;28;20803;-50
2022/08/15 02:28:51;;;;;;;11.80;9.50;;;;;;;24.96;55.83;100308.41;5207376;28;20829;-48
2022/08/15 02:31:27;;;;;;;10.45;9.43;;;;;;;24.98;55.71;100310.84;5206099;28;20410;-49
2022/08/15 02:34:03;;;;;;;10.05;9.00;;;;;;;24.93;55.81;100305.41;5203812;28;20879;-48
2022/08/15 02:36:38;;;;;;;10.82;9.35;;;;;;;24.98;55.75;100310.84;5202884;28;20418;-50
2022/08/15 02:39:11;;;;;;;11.80;10.50;;;;;;;24.99;55.97;100316.00;5203191;28;21026;-46
2022/08/15 02:41:51;;;;;;;10.60;9.60;;;;;;;24.99;55.97;100329.53;5204107;28;20419;-48
2022/08/15 02:44:24;;;;;;;12.20;10.90;;;;;;;25.00;56.20;100330.31;5205859;28;20975;-51
2022/08/15 02:46:57;;;;;;;17.17;13.77;;;;;;;25.00;56.20;100322.22;5200941;28;20862;-43
2022/08/15 02:49:29;;;;;;;18.02;14.38;;;;;;;25.00;56.15;100319.53;5204583;28;20426;-55
2022/08/15 02:52:03;;;;;;;19.43;16.47;;;;;;;25.02;56.21;100320.06;5204114;28;20416;-52
2022/08/15 02:54:36;;;;;;;18.65;14.82;;;;;;;25.04;56.21;100323.31;5205201;28;20450;-51
2022/08/15 02:57:10;;;;;;;25.48;16.73;;;;;;;25.05;56.15;100319.53;5203670;28;20534;-52
2022/08/15 02:59:44;;;;;;;21.67;15.82;;;;;;;25.04;56.10;100323.31;5204080;28;20411;-50
2022/08/15 03:02:17;;;;;;;18.50;16.23;;;;;;;25.05;56.35;100333.06;5203499;28;22020;-47
2022/08/15 03:04:49;;;;;;;20.60;15.25;;;;;;;25.05;56.37;100316.84;5202971;28;20441;-51
2022/08/15 03:07:22;;;;;;;19.40;16.10;;;;;;;25.05;56.37;100322.25;5209714;28;20913;-53
2022/08/15 03:09:54;;;;;;;22.40;16.50;;;;;;;25.07;56.26;100328.22;5205460;28;20423;-50
2022/08/15 03:12:27;;;;;;;19.55;15.07;;;;;;;25.07;56.39;100320.91;5205669;28;20838;-49
2022/08/15 03:15:01;;;;;;;18.17;15.68;;;;;;;25.08;56.36;100332.53;5204346;28;20410;-52
2022/08/15 03:17:36;;;;;;;19.83;15.15;;;;;;;25.08;56.32;100327.13;5205274;28;20554;-52
2022/08/15 03:20:10;;;;;;;19.95;14.18;;;;;;;25.09;56.36;100317.97;5206685;28;20419;-52
2022/08/15 03:22:45;;;;;;;17.45;14.38;;;;;;;25.13;56.23;100324.50;5203479;28;20427;-51
2022/08/15 03:25:20;;;;;;;16.02;14.27;;;;;;;25.05;56.30;100311.44;5207762;28;20826;-53
2022/08/15 03:27:52;;;;;;;17.17;14.82;;;;;;;25.16;56.16;100329.41;5206338;28;20472;-50
2022/08/15 03:30:26;;;;;;;17.42;14.75;;;;;;;25.18;55.99;100327.25;5203452;28;20817;-53
2022/08/15 03:33:00;;;;;;;17.75;14.73;;;;;;;25.20;56.18;100326.97;5205447;28;20410;-44
2022/08/15 03:35:40;;;;;;;19.63;15.20;;;;;;;25.20;56.12;100325.09;5205188;28;20486;-48
2022/08/15 03:38:14;;;;;;;19.57;14.37;;;;;;;25.08;56.12;100297.41;5205359;28;20747;-49
2022/08/15 03:40:50;;;;;;;19.70;14.52;;;;;;;25.17;55.96;100312.09;5209131;28;20774;-53
2022/08/15 03:43:27;;;;;;;19.88;14.55;;;;;;;25.23;56.09;100302.16;5207759;28;20407;-52
2022/08/15 03:46:04;;;;;;;20.60;14.68;;;;;;;25.23;56.18;100297.56;5206695;28;20404;-52
2022/08/15 03:48:39;;;;;;;18.37;14.67;;;;;;;25.25;55.92;100294.59;5210006;28;20970;-52
2022/08/15 03:51:14;;;;;;;18.13;15.07;;;;;;;25.25;56.10;100295.41;5210375;28;20433;-52
2022/08/15 03:53:50;;;;;;;20.67;15.20;;;;;;;25.26;55.91;100297.03;5209404;28;20415;-51
2022/08/15 03:56:26;;;;;;;20.08;14.68;;;;;;;25.25;55.97;100292.72;5208314;28;20464;-54
2022/08/15 03:59:00;;;;;;;18.50;14.77;;;;;;;25.24;56.10;100276.75;5206827;28;20411;-48
2022/08/15 04:01:37;;;;;;;17.52;14.70;;;;;;;25.25;55.97;100295.41;5213647;28;20814;-52
2022/08/15 04:04:09;;;;;;;21.02;14.95;;;;;;;25.26;55.94;100280.81;5208311;28;20486;-51
2022/08/15 04:06:41;;;;;;;20.20;15.10;;;;;;;25.24;56.13;100288.38;5210097;28;20446;-50
2022/08/15 04:09:14;;;;;;;19.30;14.95;;;;;;;25.24;56.08;100288.38;5207518;28;20554;-51
2022/08/15 04:11:48;;;;;;;16.80;13.55;;;;;;;25.25;55.94;100286.50;5207076;28;20411;-49
2022/08/15 04:14:21;;;;;;;17.65;13.65;;;;;;;25.25;55.99;100283.78;5207179;28;20423;-54
2022/08/15 04:16:56;;;;;;;18.40;13.77;;;;;;;25.27;55.84;100276.22;5206263;28;20465;-46
2022/08/15 04:19:28;;;;;;;17.87;14.03;;;;;;;25.24;55.88;100266.75;5201873;28;20504;-51
2022/08/15 04:22:06;;;;;;;18.52;13.70;;;;;;;25.27;56.01;100263.53;5208341;28;20543;-46
2022/08/15 04:24:38;;;;;;;18.58;13.13;;;;;;;25.29;55.93;100268.69;5217086;28;20491;-41
2022/08/15 04:27:11;;;;;;;19.58;13.30;;;;;;;25.29;55.92;100280.28;5207583;28;21094;-52
2022/08/15 04:29:43;;;;;;;16.90;13.80;;;;;;;25.30;55.97;100290.06;5206841;28;20440;-53
2022/08/15 04:32:16;;;;;;;18.67;13.73;;;;;;;25.30;55.80;100292.75;5210100;28;20886;-55
2022/08/15 04:34:49;;;;;;;22.45;14.50;;;;;;;25.28;55.88;100284.09;5210926;28;20422;-52
2022/08/15 04:37:22;;;;;;;20.27;13.70;;;;;;;25.28;55.86;100289.47;5215988;28;20504;-53
2022/08/15 04:39:55;;;;;;;22.50;14.73;;;;;;;25.27;55.75;100293.28;5207873;28;20414;-52
2022/08/15 04:42:28;;;;;;;22.83;14.27;;;;;;;25.28;55.59;100296.78;5196643;28;20721;-50
2022/08/15 04:45:01;;;;;;;28.98;14.75;;;;;;;25.28;55.67;100284.09;5208612;28;20853;-52
2022/08/15 04:47:34;;;;;;;26.20;14.30;;;;;;;25.30;55.68;100283.81;5214978;28;20436;-50
2022/08/15 04:50:08;;;;;;;20.27;15.20;;;;;;;25.30;55.37;100281.94;5214990;28;20464;-52
2022/08/15 04:52:46;;;;;;;28.17;14.65;;;;;;;25.30;55.38;100271.13;5206444;28;20916;-55
2022/08/15 04:55:19;;;;;;;20.80;14.65;;;;;;;25.29;55.46;100280.28;5207198;28;20898;-53
2022/08/15 04:57:52;;;;;;;21.98;15.00;;;;;;;25.28;55.48;100288.69;5206735;28;20431;-49
2022/08/15 05:00:28;;;;;;;20.90;13.30;;;;;;;25.23;55.44;100308.34;5207076;28;21553;-49
2022/08/15 05:03:07;;;;;;;21.40;15.80;;;;;;;25.16;55.59;100324.00;5206562;28;20415;-51
2022/08/15 05:05:45;;;;;;;19.45;15.05;;;;;;;25.08;55.50;100308.22;5206800;28;20927;-49
2022/08/15 05:08:17;;;;;;;18.85;13.70;;;;;;;25.10;55.59;100303.38;5204143;28;20411;-51
2022/08/15 05:10:54;;;;;;;19.65;14.15;;;;;;;24.85;55.34;100260.78;5205059;28;20424;-52
2022/08/15 05:13:30;;;;;;;17.70;14.00;;;;;;;25.15;55.33;100316.97;5205641;28;20412;-52
2022/08/15 05:16:07;;;;;;;15.33;13.37;;;;;;;24.98;55.20;100310.84;5205525;28;20482;-52
2022/08/15 05:18:43;;;;;;;18.08;14.52;;;;;;;25.17;55.12;100347.22;5202422;28;20520;-48
2022/08/15 05:21:16;;;;;;;19.75;14.00;;;;;;;24.99;55.08;100328.69;5202595;28;20414;-50
2022/08/15 05:23:48;;;;;;;18.73;13.10;;;;;;;25.13;55.28;100343.44;5206920;28;20772;-51
2022/08/15 05:26:21;;;;;;;17.00;11.60;;;;;;;25.08;55.34;100338.78;5198756;28;20450;-51
2022/08/15 05:28:53;;;;;;;14.73;11.35;;;;;;;25.08;55.33;100351.44;5206855;28;20501;-50
2022/08/15 05:31:26;;;;;;;19.15;12.35;;;;;;;24.89;55.11;100318.59;5208490;28;20706;-52
2022/08/15 05:34:01;;;;;;;14.23;11.35;;;;;;;25.06;55.04;100334.69;5209786;28;20414;-43
2022/08/15 05:36:35;;;;;;;13.30;10.40;;;;;;;25.06;54.91;100340.09;5206259;28;20834;-50
2022/08/15 05:39:18;;;;;;;17.20;10.77;;;;;;;25.11;54.67;100342.03;5207018;28;20518;-47
2022/08/15 05:42:02;;;;;;;13.65;11.07;;;;;;;25.11;54.69;100337.44;5206387;28;20922;-50
2022/08/15 05:44:43;;;;;;;15.93;11.10;;;;;;;25.09;54.54;100331.47;5204120;28;20392;-50
2022/08/15 05:47:23;;;;;;;15.98;11.23;;;;;;;25.10;54.48;100332.28;5204203;28;20438;-50
2022/08/15 05:50:06;;;;;;;15.18;10.52;;;;;;;25.08;54.33;100329.84;5204783;28;20518;-49
2022/08/15 05:52:48;;;;;;;15.82;9.90;;;;;;;25.03;54.32;100329.81;5201530;28;20411;-49
2022/08/15 05:55:29;;;;;;;12.65;9.85;;;;;;;25.02;54.28;100339.81;5203478;28;20736;-50
2022/08/15 05:58:18;;;;;;;14.32;9.95;;;;;;;24.99;54.23;100340.31;5202098;28;20960;-47
2022/08/15 06:01:03;;;;;;;15.82;9.20;;;;;;;24.99;54.13;100345.72;5209905;28;20413;-47
2022/08/15 06:03:37;;;;;;;15.75;9.40;;;;;;;25.00;53.92;100346.53;5200219;28;20889;-52
2022/08/15 06:06:18;;;;;;;11.38;8.85;;;;;;;24.98;53.89;100354.06;5205705;28;20565;-48
2022/08/15 06:08:56;;;;;;;13.77;8.63;;;;;;;24.98;53.67;100345.97;5205691;28;20503;-49
2022/08/15 06:11:34;;;;;;;14.10;9.18;;;;;;;25.01;53.57;100348.97;5206537;28;20479;-52
2022/08/15 06:14:19;;;;;;;12.88;8.32;;;;;;;25.05;53.42;100346.56;5204750;28;20498;-51
2022/08/15 06:16:57;;;;;;;14.98;8.20;;;;;;;25.08;53.28;100348.75;5203210;28;20925;-51
2022/08/15 06:19:33;;;;;;;16.40;9.10;;;;;;;25.11;53.10;100350.94;5203394;28;20728;-52
2022/08/15 06:22:28;;;;;;;11.65;7.53;;;;;;;25.12;52.96;100366.09;5204922;28;20880;-50
2022/08/15 06:25:15;;;;;;;12.55;7.85;;;;;;;25.05;52.79;100354.66;5203135;28;20813;-48
2022/08/15 06:28:07;;;;;;;10.50;6.90;;;;;;;25.19;52.71;100374.00;5205975;28;21432;-51
2022/08/15 06:30:48;;;;;;;11.90;6.57;;;;;;;25.20;52.60;100373.75;5203271;28;20809;-46
2022/08/15 06:33:54;;;;;;;10.20;5.85;;;;;;;25.19;52.55;100361.31;5204776;28;20465;-49
2022/08/15 06:36:36;;;;;;;9.00;6.05;;;;;;;25.17;52.37;100358.03;5205634;28;20721;-50
2022/08/15 06:39:18;;;;;;;11.18;6.70;;;;;;;25.21;52.35;100359.19;5205098;28;20769;-49
2022/08/15 06:41:59;;;;;;;10.77;6.40;;;;;;;25.19;52.04;100361.31;5203581;28;20881;-48
2022/08/15 06:44:33;;;;;;;10.20;6.30;;;;;;;25.29;52.01;100369.50;5201278;28;20816;-45
2022/08/15 06:47:07;;;;;;;11.93;6.10;;;;;;;25.30;52.11;100376.53;5204557;28;20891;-48
2022/08/15 06:49:43;;;;;;;9.32;5.63;;;;;;;25.30;51.86;100364.88;5205460;28;20970;-49
2022/08/15 06:52:18;;;;;;;10.85;5.03;;;;;;;25.32;51.82;100375.47;5205305;28;20525;-52
2022/08/15 06:54:52;;;;;;;12.57;5.00;;;;;;;25.37;51.50;100370.09;5206796;28;20416;-48
2022/08/15 06:57:33;;;;;;;8.10;4.53;;;;;;;25.45;51.29;100369.59;5205221;28;20860;-49
2022/08/15 07:00:10;;;;;;;10.13;4.88;;;;;;;25.84;50.84;100369.34;5206435;28;20851;-53
2022/08/15 07:02:59;;;;;;;9.83;4.57;;;;;;;26.21;50.24;100370.03;5203546;28;20424;-49
2022/08/15 07:05:48;;;;;;;6.00;3.92;;;;;;;26.45;49.79;100372.31;5203840;28;20914;-51
2022/08/15 07:08:32;;;;;;;6.43;3.20;;;;;;;26.65;49.46;100366.94;5208493;28;20495;-52
2022/08/15 07:11:14;;;;;;;10.23;3.40;;;;;;;27.32;48.63;100364.31;5204888;28;20719;-50
2022/08/15 07:14:13;;;;;;;6.07;3.42;;;;;;;28.89;46.64;100364.75;5210207;28;20415;-53
2022/08/15 07:16:53;;;;;;;9.98;3.05;;;;;;;30.41;44.59;100354.53;5205451;28;20396;-49
2022/08/15 07:19:26;;;;;;;7.13;2.70;;;;;;;31.75;43.10;100343.06;5201551;28;20498;-53
2022/08/15 07:21:58;;;;;;;9.13;3.00;;;;;;;32.88;41.63;100353.16;5205456;28;20415;-47
2022/08/15 07:24:33;;;;;;;9.17;2.47;;;;;;;34.04;40.13;100344.09;5192718;28;20748;-46
2022/08/15 07:27:16;;;;;;;6.43;2.30;;;;;;;35.03;39.00;100331.41;5207475;28;20821;-48
2022/08/15 07:29:57;;;;;;;5.70;2.33;;;;;;;35.74;38.03;100338.25;5201774;28;20847;-51
2022/08/15 07:32:45;;;;;;;5.53;2.03;;;;;;;36.37;37.20;100341.91;5219790;28;20980;-49
2022/08/15 07:35:24;;;;;;;3.53;2.13;;;;;;;36.97;36.46;100342.50;5214595;28;20596;-52
2022/08/15 07:38:01;;;;;;;7.22;2.50;;;;;;;37.47;35.49;100346.22;5221925;28;20501;-51
2022/08/15 07:40:37;;;;;;;4.13;1.73;;;;;;;37.76;35.19;100347.94;5217559;28;20406;-50
2022/08/15 07:43:28;;;;;;;4.47;1.90;;;;;;;38.06;34.68;100341.06;5207740;28;20416;-49
2022/08/15 07:46:08;;;;;;;6.45;2.13;;;;;;;38.27;33.96;100334.56;5205732;28;20864;-47
2022/08/15 07:48:43;;;;;;;3.33;1.70;;;;;;;38.49;33.62;100336.78;5210727;28;20421;-51
2022/08/15 07:51:23;;;;;;;6.75;1.98;;;;;;;38.80;33.25;100340.00;5216056;28;20908;-50
2022/08/15 07:53:59;;;;;;;6.05;2.55;;;;;;;38.88;33.01;100334.34;5206538;28;20728;-52
2022/08/15 07:56:34;;;;;;;7.53;2.15;;;;;;;39.00;32.74;100335.47;5211048;28;20733;-50
2022/08/15 07:59:19;;;;;;;6.72;2.17;;;;;;;39.12;32.32;100335.38;5203595;28;20741;-51
2022/08/15 08:02:01;;;;;;;5.03;2.10;;;;;;;39.19;31.92;100332.78;5214615;28;20864;-50
2022/08/15 08:04:34;;;;;;;3.85;1.80;;;;;;;39.25;31.82;100334.13;5212231;28;20517;-45
2022/08/15 08:07:19;;;;;;;5.35;1.88;;;;;;;39.20;31.73;100337.16;5208511;28;20873;-50
2022/08/15 08:09:57;;;;;;;3.72;2.03;;;;;;;39.25;31.58;100331.38;5212201;28;20404;-51
2022/08/15 08:12:41;;;;;;;6.07;2.00;;;;;;;39.29;31.41;100343.34;5210287;28;20853;-47
2022/08/15 08:15:21;;;;;;;6.28;2.17;;;;;;;39.05;31.41;100337.94;5209340;28;20441;-49
2022/08/15 08:18:03;;;;;;;5.97;2.22;;;;;;;38.38;31.68;100346.75;5211750;28;20713;-48
2022/08/15 08:20:42;;;;;;;7.15;1.95;;;;;;;37.72;32.21;100353.31;5207686;28;21076;-53
2022/08/15 08:23:22;;;;;;;5.43;1.92;;;;;;;37.48;31.97;100343.13;5207694;28;20819;-44
2022/08/15 08:26:07;;;;;;;3.00;1.80;;;;;;;37.25;31.96;100278.56;5221278;28;21306;-48
2022/08/15 08:28:47;;;;;;;4.22;2.03;;;;;;;37.82;31.54;100330.81;5215953;28;20742;-49
2022/08/15 08:31:28;;;;;;;8.38;2.20;;;;;;;38.01;31.28;100326.69;5228008;28;20846;-47
2022/08/15 08:34:11;;;;;;;5.20;1.70;;;;;;;37.82;31.29;100327.28;5224016;28;20740;-48
2022/08/15 08:36:55;;;;;;;5.32;1.92;;;;;;;37.85;31.10;100326.59;5222447;28;20733;-48
2022/08/15 08:39:45;;;;;;;3.78;2.30;;;;;;;37.89;30.79;100333.00;5223713;28;20519;-47
2022/08/15 08:42:28;;;;;;;4.05;1.95;;;;;;;37.82;30.67;100324.53;5223144;28;20552;-50
2022/08/15 08:45:10;;;;;;;3.78;2.30;;;;;;;37.68;30.44;100329.56;5225609;28;20921;-46
2022/08/15 08:48:11;;;;;;;4.80;1.90;;;;;;;37.61;30.49;100339.22;5226971;28;20939;-46
2022/08/15 08:50:55;;;;;;;3.85;2.08;;;;;;;37.80;30.03;100332.31;5224673;28;20414;-47
2022/08/15 08:53:37;;;;;;;4.95;1.98;;;;;;;37.76;30.07;100329.47;5223082;28;20501;-47
2022/08/15 08:56:15;;;;;;;8.07;2.20;;;;;;;37.56;30.05;100327.63;5222574;28;20510;-47
2022/08/15 08:58:53;;;;;;;4.28;2.10;;;;;;;37.25;30.14;100322.63;5223874;28;20432;-47
2022/08/15 09:01:28;;;;;;;6.22;2.42;;;;;;;37.11;30.00;100322.97;5224592;28;20496;-46
2022/08/15 09:04:07;;;;;;;4.30;2.10;;;;;;;36.91;30.23;100336.41;5221271;28;20749;-47
2022/08/15 09:06:43;;;;;;;7.90;2.20;;;;;;;36.68;29.92;100336.00;5223433;28;20441;-49
2022/08/15 09:09:29;;;;;;;3.60;2.10;;;;;;;36.38;29.96;100340.75;5227940;28;20876;-47
2022/08/15 09:15:04;;;;;;;4.32;2.25;;;;;;;35.75;30.32;100337.91;5225089;28;20445;-50
2022/08/15 09:17:39;;;;;;;9.73;2.53;;;;;;;35.68;30.13;100345.06;5225545;28;20805;-47
2022/08/15 09:20:17;;;;;;;4.78;2.38;;;;;;;35.68;30.22;100340.41;5223188;28;20523;-51
2022/08/15 09:22:50;;;;;;;3.70;2.25;;;;;;;35.57;29.94;100350.13;5224651;28;20398;-47
2022/08/15 09:25:24;;;;;;;6.53;2.22;;;;;;;35.47;29.95;100339.50;5223129;28;20738;-47
2022/08/15 09:28:07;;;;;;;4.93;2.47;;;;;;;35.38;30.05;100331.28;5224963;28;20414;-46
2022/08/15 09:30:42;;;;;;;4.00;2.50;;;;;;;35.50;29.81;100338.84;5222782;28;20419;-46
2022/08/15 09:33:41;;;;;;;6.38;2.60;;;;;;;35.55;29.89;100344.16;5208665;28;20425;-49
2022/08/15 09:37:00;;;;;;;5.20;2.40;;;;;;;35.50;29.64;100341.56;5226680;28;20406;-47
2022/08/15 09:39:58;;;;;;;4.57;2.63;;;;;;;35.51;29.30;100343.97;5222669;28;20481;-49
2022/08/15 09:42:56;;;;;;;6.37;2.50;;;;;;;35.60;29.11;100343.97;5220059;28;20835;-49
2022/08/15 09:45:40;;;;;;;6.60;2.97;;;;;;;35.79;29.21;100338.84;5224140;28;20806;-46
2022/08/15 09:48:44;;;;;;;5.55;2.83;;;;;;;35.97;28.84;100336.03;5213732;28;20506;-47
2022/08/15 09:51:40;;;;;;;4.10;2.70;;;;;;;35.98;29.05;100337.63;5211850;28;20405;-45
2022/08/15 09:54:21;;;;;;;7.15;2.67;;;;;;;35.97;28.72;100336.81;5214221;28;20415;-48
2022/08/15 09:57:24;;;;;;;4.97;2.67;;;;;;;35.78;28.70;100309.78;5224725;28;20418;-50
2022/08/15 10:00:03;;;;;;;5.05;2.90;;;;;;;35.89;28.84;100339.63;5223487;28;20414;-47
2022/08/15 10:02:35;;;;;;;4.78;2.97;;;;;;;35.67;28.96;100347.00;5217799;28;20402;-52
2022/08/15 10:05:26;;;;;;;6.05;3.25;;;;;;;35.44;29.04;100337.41;5214068;28;20778;-47
2022/08/15 10:08:02;;;;;;;4.28;2.50;;;;;;;35.15;29.31;100344.41;5210882;28;20414;-47
2022/08/15 10:11:08;;;;;;;6.93;2.63;;;;;;;34.82;29.35;100350.44;5222071;28;20712;-47
2022/08/15 10:13:48;;;;;;;3.40;2.80;;;;;;;34.45;29.87;100349.16;5222250;28;20416;-49
2022/08/15 10:16:46;;;;;;;5.65;3.08;;;;;;;34.25;30.38;100358.00;5225301;28;20505;-49
2022/08/15 10:19:33;;;;;;;4.00;3.08;;;;;;;33.74;30.68;100308.22;5224114;28;20869;-46
2022/08/15 10:22:56;;;;;;;8.57;3.20;;;;;;;34.00;30.41;100367.75;5221067;28;20923;-44
2022/08/15 10:25:35;;;;;;;7.93;3.75;;;;;;;33.86;30.59;100365.94;5119414;28;20415;-40
2022/08/15 10:28:21;;;;;;;5.78;3.15;;;;;;;33.98;30.67;100357.91;5118236;28;20960;-46
2022/08/15 10:31:26;;;;;;;8.18;3.83;;;;;;;34.20;30.49;100364.44;5183993;28;20938;-48
2022/08/15 10:34:01;;;;;;;5.85;3.22;;;;;;;34.28;30.86;100365.56;5219553;28;20419;-47
2022/08/15 10:36:36;;;;;;;4.78;3.28;;;;;;;34.32;30.88;100372.03;5224601;28;20741;-47
2022/08/15 10:39:29;;;;;;;5.35;3.10;;;;;;;34.37;30.54;100375.41;5222827;28;20794;-48
2022/08/15 10:42:17;;;;;;;5.28;2.97;;;;;;;34.51;30.49;100369.78;5219547;28;20410;-46
2022/08/15 10:45:01;;;;;;;7.28;2.78;;;;;;;34.51;30.65;100377.22;5220999;28;20847;-47
2022/08/15 10:47:45;;;;;;;4.45;2.78;;;;;;;34.49;30.39;100371.25;5219436;28;20671;-49
2022/08/15 10:50:24;;;;;;;4.43;2.50;;;;;;;34.38;30.39;100355.13;5224065;28;20820;-47
2022/08/15 10:53:08;;;;;;;5.05;2.70;;;;;;;34.28;30.57;100371.84;5217369;28;20523;-44
2022/08/15 10:55:42;;;;;;;7.55;3.00;;;;;;;34.01;30.90;100366.63;5207620;28;20404;-47
2022/08/15 10:58:21;;;;;;;4.90;3.42;;;;;;;34.00;30.90;100370.47;5211566;28;20885;-49
2022/08/15 11:01:04;;;;;;;7.00;2.85;;;;;;;33.93;30.55;100370.94;5213738;28;20779;-49
2022/08/15 11:03:44;;;;;;;4.45;3.03;;;;;;;33.95;30.60;100380.47;5220872;28;20413;-48
2022/08/15 11:06:21;;;;;;;6.20;3.50;;;;;;;33.93;30.73;100382.72;5223722;28;20870;-51
2022/08/15 11:08:57;;;;;;;5.32;3.10;;;;;;;33.96;30.90;100387.56;5226502;28;20920;-50
2022/08/15 11:11:36;;;;;;;4.55;2.85;;;;;;;34.22;30.31;100384.09;5219860;28;20764;-45
2022/08/15 11:14:24;;;;;;;6.55;2.75;;;;;;;34.29;30.34;100370.75;5223472;28;20440;-48
2022/08/15 11:17:00;;;;;;;5.47;3.00;;;;;;;34.34;30.59;100387.03;5223794;28;20521;-48
2022/08/15 11:19:37;;;;;;;6.83;3.10;;;;;;;34.34;30.34;100387.03;5221843;28;20413;-48
2022/08/15 11:22:19;;;;;;;10.38;4.05;;;;;;;34.32;30.88;100393.97;5223625;28;20860;-49
2022/08/15 11:25:00;;;;;;;6.35;3.60;;;;;;;34.21;31.17;100401.69;5222618;28;20425;-48
2022/08/15 11:27:32;;;;;;;5.63;4.15;;;;;;;34.18;31.00;100405.06;5217554;28;20406;-49
2022/08/15 11:30:08;;;;;;;9.50;4.22;;;;;;;34.14;31.27;100404.09;5223257;28;20508;-48
2022/08/15 11:32:41;;;;;;;7.05;4.10;;;;;;;34.10;31.75;100403.09;5221962;28;20417;-52
2022/08/15 11:35:25;;;;;;;8.30;4.10;;;;;;;34.12;31.66;100409.88;5217057;28;20448;-53
2022/08/15 11:38:00;;;;;;;4.82;3.47;;;;;;;34.21;31.86;100415.38;5223468;28;20424;-47
2022/08/15 11:40:37;;;;;;;8.93;3.60;;;;;;;33.93;31.97;100414.78;5219367;28;20414;-49
2022/08/15 11:43:16;;;;;;;9.35;4.25;;;;;;;33.67;32.61;100429.19;5223378;28;20731;-47
2022/08/15 11:45:53;;;;;;;10.23;4.78;;;;;;;33.44;32.88;100420.16;5221147;28;20537;-52
2022/08/15 11:48:29;;;;;;;7.43;4.70;;;;;;;33.26;33.13;100421.19;5222332;28;20796;-51
2022/08/15 11:51:07;;;;;;;6.03;4.57;;;;;;;33.16;32.90;100426.91;5215986;28;20864;-51
2022/08/15 11:54:04;;;;;;;8.60;4.53;;;;;;;32.98;33.13;100434.19;5223891;28;20418;-51
2022/08/15 11:56:50;;;;;;;8.43;5.43;;;;;;;32.84;33.39;100431.47;5222770;28;20827;-48
2022/08/15 11:59:27;;;;;;;4.88;3.85;;;;;;;32.74;33.46;100429.00;5221297;28;20714;-48
2022/08/15 12:02:31;;;;;;;9.77;4.68;;;;;;;32.68;33.72;100438.41;5220291;28;20725;-47
2022/08/15 12:05:13;;;;;;;9.98;4.22;;;;;;;32.58;33.40;100410.19;5211114;28;20504;-47
2022/08/15 12:07:48;;;;;;;9.10;4.35;;;;;;;32.68;33.71;100441.16;5225123;28;20441;-48
2022/08/15 12:10:28;;;;;;;8.88;3.55;;;;;;;32.56;33.97;100439.75;5228166;28;20398;-50
2022/08/15 12:13:01;;;;;;;5.85;3.50;;;;;;;32.41;34.19;100441.97;5222056;28;20409;-52
2022/08/15 12:15:42;;;;;;;8.02;3.47;;;;;;;32.17;34.17;100447.66;5227391;28;20722;-49
2022/08/15 12:18:33;;;;;;;6.28;4.13;;;;;;;32.02;34.16;100449.56;5229050;28;20548;-50